Terminal Aerodrome Forecast
Issued by NWS Grand Rapids, MI

Home | Current Version | Previous Version | Text Only | Print | Product List | Glossary On
Versions: 1 2 3 4 5 6 7 8 9 10 11 12 13 14
000
FTUS43 KGRR 011720
TAFGRR
TAF
KGRR 011720Z 0118/0218 28015G26KT P6SM SCT060
     FM012300 25011KT P6SM SCT100
     FM021100 21007KT P6SM VCTS BKN080CB
     FM021500 24014G22KT P6SM FEW050 BKN150=

USA.gov is the U.S. government's official web portal to all federal, state and local government web resources and services.